METAR Data
IDs: Format: Raw Decoded Include TAF

Data at: 1552 UTC 18 Aug 2019

PAFS 181501Z AUTO 00000KT 10SM CLR 03/02 A3037 RMK AO2 SLP291 T00280022 56012
PAFS 181401Z AUTO 00000KT 10SM CLR 04/03 A3038 RMK AO2 SLP292 T00440033
PAFS 181301Z AUTO 01004KT 10SM CLR 06/03 A3039 RMK AO2 SLP296 T00610033
PAFS 181201Z AUTO 35005KT 10SM CLR 07/04 A3039 RMK AO2 SLP298 T00720039 10128 20072 56004
PAFS 181101Z AUTO 35006KT 10SM CLR 08/04 A3041 RMK AO2 SLP303 T00830044
PAFS 181001Z AUTO 36005KT 10SM CLR 09/05 A3041 RMK AO2 SLP304 T00890050
PAFS 180901Z AUTO 36005KT 10SM CLR 09/06 A3042 RMK AO2 SLP306 T00890061 400890089 58006
PAFS 180801Z AUTO 02006KT 10SM CLR 10/06 A3042 RMK AO2 SLP308 T01000061
PAFS 180701Z AUTO 01005KT 10SM CLR 11/06 A3043 RMK AO2 SLP312 T01110061
PAFS 180601Z AUTO 04005KT 10SM CLR 13/07 A3044 RMK AO2 SLP314 T01280067 10178 20128 58001
PAFS 180501Z AUTO 08004KT 10SM CLR 15/07 A3044 RMK AO2 SLP315 T01500072
PAFS 180401Z AUTO 07009KT 10SM CLR 16/07 A3044 RMK AO2 SLP317 T01610067
PAFS 180301Z AUTO 04010G19KT 10SM SCT050 17/06 A3044 RMK AO2 SLP316 T01720056 56011
PAFS 180201Z AUTO 04010G16KT 010V080 10SM FEW050 17/06 A3044 RMK AO2 SLP315 T01720061
PAFS 180101Z AUTO 04012G18KT 10SM FEW050 18/07 A3045 RMK AO2 SLP320 T01780067
PAFS 180001Z AUTO 07009G16KT 10SM SCT044 17/07 A3046 RMK AO2 SLP322 T01670072 10172 20094 58005
PAFS 172301Z AUTO 02011KT 10SM SCT040 16/07 A3048 RMK AO2 SLP327 T01560072
PAFS 172201Z AUTO 04006KT 10SM SCT031 15/08 A3049 RMK AO2
PAFS 172141Z AUTO 06010KT 10SM BKN029 14/08 A3049 RMK AO2
PAFS 172101Z AUTO 01007KT 340V050 10SM SCT027 14/08 A3049 RMK AO2 SLP333 T01390078 51004
PAFS 172001Z AUTO 03006KT 10SM FEW025 13/07 A3049 RMK AO2 SLP333 T01280072
PAFS 171951Z AUTO 07008KT 10SM SCT027 13/08 A3049 RMK AO2
PAFS 171921Z AUTO 06009KT 10SM BKN023 13/07 A3048 RMK AO2
PAFS 171901Z AUTO 04007KT 10SM FEW019 12/08 A3049 RMK AO2 SLP330 T01170078
PAFS 171801Z AUTO 03004KT 10SM CLR 09/07 A3048 RMK AO2 SLP329 T00940072 10094 20017 53002
PAFS 171701Z AUTO 00000KT 10SM OVC040 07/06 A3048 RMK AO2 SLP327 T00670061
PAFS 171601Z AUTO 36003KT 10SM BKN044 04/04 A3047 RMK AO2 SLP325 T00440044
PAFS 171501Z AUTO 01003KT 10SM BKN048 02/02 A3046 RMK AO2 SLP324 T00220022 51004 FZRANO
PAFS 171448Z AUTO 02003KT 10SM FEW002 OVC048 02/02 A3047 RMK AO2 FZRANO
PAFS 171413Z AUTO 00000KT 1/4SM FG BKN002 02/02 A3046 RMK AO2 FZRANO
PAFS 171401Z AUTO 05003KT 1/2SM FG VV002 02/02 A3046 RMK AO2 FZRANO
PAFS 171353Z AUTO 00000KT 1SM BR VV001 02/02 A3046 RMK AO2 FZRANO
PAFS 171344Z AUTO 00000KT 1/2SM FG VV001 02/02 A3046 RMK AO2 FZRANO
PAFS 171333Z AUTO 00000KT 1SM BR VV001 02/02 A3046 RMK AO2 FZRANO
PAFS 171329Z AUTO 00000KT 2 1/2SM BR FEW001 02/02 A3046 RMK AO2 FZRANO
PAFS 171301Z AUTO 00000KT 10SM CLR 03/03 A3046 RMK AO2 SLP320 T00330033
PAFS 171201Z AUTO 00000KT 10SM CLR 04/04 A3045 RMK AO2 SLP317 70009 T00390039 10106 20039 51004
PAFS 171114Z AUTO 00000KT 10SM FEW002 06/06 A3045 RMK AO2
PAFS 171101Z AUTO 00000KT 1 3/4SM BR FEW002 06/06 A3045 RMK AO2
PAFS 171054Z AUTO 15004KT 2SM BR FEW002 04/04 A3045 RMK AO2 VIS 1/2V5
PAFS 171001Z AUTO 00000KT 10SM CLR 07/06 A3045 RMK AO2 SLP319 T00670061
PAFS 170901Z AUTO 13003KT 10SM CLR 07/07 A3044 RMK AO2 SLP315 60001 T00720067 400720072 53016
PAFS 170801Z AUTO 00000KT 10SM CLR 08/08 A3042 RMK AO2 SLP308 T00830078
PAFS 170701Z AUTO 00000KT 10SM SCT040 SCT049 11/09 A3039 RMK AO2 SLP299 T01060089
PAFS 170601Z AUTO 33007KT 10SM SCT031 BKN040 OVC060 12/10 A3038 RMK AO2 SLP292 60002 T01170100 10133 20117 53011
PAFS 170542Z AUTO 30008KT 10SM FEW012 SCT029 BKN060 12/11 A3037 RMK AO2 RAE0444 SLP289 P0000 T01220106
PAFS 170501Z AUTO 25009KT 10SM FEW015 SCT024 13/12 A3035 RMK AO2 RAE0444 P0000
PAFS 170424Z AUTO 25008KT 9SM -RA SCT019 BKN029 OVC037 13/12 A3034 RMK AO2 RAE03020315B09 SLP281 P0001 T01330117
PAFS 170401Z AUTO 22008KT 10SM SCT024 BKN029 OVC037 13/12 A3034 RMK AO2 RAE03020315 P0001